EDT,Max TemperatureF,Mean TemperatureF,Min TemperatureF,Max Dew PointF,MeanDew PointF,Min DewpointF,Max Humidity, Mean Humidity, Min Humidity, Max Sea Level PressureIn, Mean Sea Level PressureIn, Min Sea Level PressureIn, Max VisibilityMiles, Mean VisibilityMiles, Min VisibilityMiles, Max Wind SpeedMPH, Mean Wind SpeedMPH, Max Gust SpeedMPH,PrecipitationIn, CloudCover, Events, WindDirDegrees
2012-8-1,79,74,69,70,67,66,93,82,64,29.95,29.90,29.86,10,9,1,14,7,,0.03,5,Rain,209
2012-8-2,82,76,69,73,70,66,94,88,72,29.94,29.88,29.83,10,6,0,15,3,,0.00,5,Fog,237
2012-8-3,84,78,73,76,73,69,94,88,74,30.12,30.02,29.94,10,8,1,14,8,23,0.01,5,,229
2012-8-4,86,80,75,76,75,73,100,87,72,30.24,30.21,30.13,10,6,0,14,7,18,0.00,6,Fog,219
2012-8-5,84,80,75,77,75,73,100,89,79,30.25,30.14,29.99,10,7,1,22,11,29,0.01,7,,201
2012-8-6,87,78,64,74,69,60,94,78,46,30.00,29.97,29.92,10,9,2,15,9,25,0.47,6,Rain,261
2012-8-7,82,70,60,66,62,57,93,76,54,30.02,30.00,29.97,10,10,10,9,6,,0.00,1,,178
2012-8-8,81,68,57,70,62,55,100,87,60,30.02,29.99,29.97,10,7,0,12,2,,0.00,2,Fog,193
2012-8-9,82,72,62,73,68,62,100,89,74,29.99,29.96,29.93,10,7,0,13,3,20,0.00,5,Fog,186
2012-8-10,81,76,73,74,72,71,94,90,78,29.96,29.90,29.81,10,9,1,24,10,32,0.49,7,Rain,173
2012-8-11,82,78,73,75,73,69,90,86,74,29.97,29.90,29.85,10,10,8,17,12,25,0.15,6,Rain,211
2012-8-12,81,77,73,75,73,70,94,88,77,29.96,29.94,29.91,10,9,2,23,10,26,0.63,6,Rain,204
2012-8-13,82,76,69,73,68,65,94,82,58,29.96,29.94,29.92,10,6,0,15,5,20,0.00,1,Fog,233
2012-8-14,86,74,64,69,65,62,94,80,46,29.96,29.95,29.92,10,7,0,10,3,,0.00,1,Fog,256
2012-8-15,82,73,64,73,68,62,94,85,65,29.95,29.90,29.84,10,7,0,12,3,,0.36,4,Fog-Rain-Thunderstorm,145
2012-8-16,84,76,69,70,67,65,90,74,55,29.85,29.83,29.81,10,10,9,12,4,,0.02,2,Rain,301
2012-8-17,84,74,64,73,67,60,94,77,43,29.87,29.85,29.82,10,9,1,15,5,21,0.00,0,,235
2012-8-18,77,73,66,72,67,63,91,82,71,29.89,29.86,29.82,10,9,2,13,7,23,0.20,6,Rain-Thunderstorm,3
2012-8-19,78,68,59,65,61,55,94,79,60,29.95,29.91,29.88,10,9,1,9,2,,0.00,3,,9
2012-8-20,75,68,59,64,61,56,90,78,57,29.93,29.90,29.87,10,10,10,8,2,,0.00,2,,178
2012-8-21,81,70,59,66,62,56,90,72,49,30.09,30.00,29.92,10,10,10,9,4,,0.00,1,,251
2012-8-22,84,72,59,64,61,55,90,69,41,30.15,30.12,30.07,10,10,10,7,4,,0.00,0,,267
2012-8-23,82,68,55,68,61,52,90,77,58,30.17,30.14,30.12,10,9,1,12,3,,0.00,0,,240
2012-8-24,84,72,62,69,64,59,94,81,51,30.21,30.16,30.11,10,6,0,6,2,,0.00,0,Fog,142
2012-8-25,81,70,59,66,62,55,94,81,46,30.32,30.26,30.22,10,6,0,14,4,21,0.01,1,Fog,92
2012-8-26,79,66,54,67,58,51,94,80,44,30.34,30.30,30.26,10,6,0,10,2,,0.00,2,Fog,75
2012-8-27,80,64,48,72,59,46,93,84,73,30.25,30.16,29.98,10,6,0,14,3,,0.01,6,Fog,196
2012-8-28,84,77,68,74,71,63,94,80,56,29.96,29.84,29.73,10,10,10,20,10,31,0.02,5,Rain,244
2012-8-29,75,65,52,62,53,47,83,59,37,29.98,29.93,29.84,10,10,10,13,8,16,0.00,1,,358
2012-8-30,80,64,48,61,54,45,90,64,39,30.06,30.02,29.99,10,10,10,16,6,25,0.00,0,,257
2012-8-31,84,78,72,72,66,60,85,69,51,30.01,29.94,29.86,10,10,10,16,10,25,0.00,0,,244